Alleyton, Texas
Current Conditions -  °F | °C
As of 10:15 AM on Thursday 29 Jan 2015 (Local Time) from K66R Reporting Station
Broken Clouds Broken Clouds  
Wind Chill: 61°   Ceiling: 300
Heat Index: 61°   Visibility: 10mi
Dew Point: 61°   Wind: 0mph
Humidity: 99%   Direction: NA
Pressure: 30.26"   Gusts: NA
Location:  29.71°N, 96.49°W
Report Text: K66R 291615Z AUTO 00000KT 10SM BKN003 16/16 A3026 RMK AO2 T01630161
Loading
Personal Weather Stations






























Interactive Weather Map New forecast layout! Learn more

10-Day Weather Forecast

Advertisements
Track Severe Weather on mobile